Time;durP1;ratioP1;P1;durP2;ratioP2;P2;SDS_P1;SDS_P2;PMS_P1;PMS_P2;Temp;Humidity;BMP_temperature;BMP_pressure;BME280_temperature;BME280_humidity;BME280_pressure;Samples;Min_cycle;Max_cycle;Signal;HPM_P1;HPM_P2
2020/12/10 00:01:53;;;;;;;78.43;28.65;;;4.80;91.50;;;;;;5026036;28;20028;-78
2020/12/10 00:04:19;;;;;;;75.53;28.42;;;4.80;91.40;;;;;;5035204;28;20025;-78
2020/12/10 00:06:45;;;;;;;75.22;27.70;;;4.70;91.50;;;;;;5031517;28;20476;-79
2020/12/10 00:09:11;;;;;;;73.35;28.15;;;4.70;91.60;;;;;;5041694;28;20090;-78
2020/12/10 00:11:37;;;;;;;66.35;26.85;;;4.70;91.60;;;;;;5042675;28;20056;-78
2020/12/10 00:14:04;;;;;;;76.35;27.17;;;4.60;91.70;;;;;;5026665;28;20037;-79
2020/12/10 00:16:31;;;;;;;72.35;28.00;;;4.70;91.70;;;;;;5035382;28;20029;-79
2020/12/10 00:18:56;;;;;;;77.75;28.60;;;4.70;91.60;;;;;;5040948;28;20036;-78
2020/12/10 00:21:23;;;;;;;77.82;28.15;;;4.70;91.60;;;;;;5039510;28;20037;-79
2020/12/10 00:23:49;;;;;;;76.47;30.88;;;4.70;91.50;;;;;;5024388;28;20055;-79
2020/12/10 00:26:16;;;;;;;75.75;28.20;;;4.70;91.40;;;;;;5038687;28;20076;-78
2020/12/10 00:28:42;;;;;;;69.38;27.10;;;4.70;91.50;;;;;;5041919;28;20024;-79
2020/12/10 00:31:08;;;;;;;73.70;30.23;;;4.70;91.50;;;;;;5022829;28;20154;-79
2020/12/10 00:33:33;;;;;;;75.03;29.23;;;4.70;91.30;;;;;;5025072;28;20115;-79
2020/12/10 00:36:02;;;;;;;72.75;26.98;;;4.70;91.30;;;;;;5039998;28;20037;-79
2020/12/10 00:38:28;;;;;;;72.07;28.65;;;4.60;91.60;;;;;;5025301;28;20027;-78
2020/12/10 00:40:54;;;;;;;68.03;26.58;;;4.70;91.30;;;;;;5041305;28;20029;-77
2020/12/10 00:43:20;;;;;;;70.65;28.60;;;4.60;91.30;;;;;;5025346;28;20046;-79
2020/12/10 00:45:47;;;;;;;74.55;29.02;;;4.70;91.30;;;;;;5038394;28;20021;-79
2020/12/10 00:48:13;;;;;;;76.00;30.60;;;4.70;91.40;;;;;;5038544;28;20078;-78
2020/12/10 00:50:38;;;;;;;74.38;28.95;;;4.70;91.50;;;;;;5024198;28;20079;-79
2020/12/10 00:53:04;;;;;;;67.13;27.27;;;4.60;91.30;;;;;;5024971;28;20037;-78
2020/12/10 00:55:30;;;;;;;65.03;26.95;;;4.70;91.40;;;;;;5040278;28;20399;-79
2020/12/10 00:57:55;;;;;;;72.63;26.88;;;4.60;91.40;;;;;;5023408;28;20021;-77
2020/12/10 01:00:22;;;;;;;72.32;28.58;;;4.60;91.40;;;;;;5044671;28;20389;-79
2020/12/10 01:02:48;;;;;;;70.07;28.48;;;4.60;91.40;;;;;;5024451;28;20028;-77
2020/12/10 01:05:13;;;;;;;71.28;27.00;;;4.60;91.40;;;;;;5037418;28;20041;-79
2020/12/10 01:07:39;;;;;;;71.85;28.60;;;4.60;91.40;;;;;;5026907;28;20028;-78
2020/12/10 01:10:06;;;;;;;71.85;29.08;;;4.70;91.40;;;;;;5036764;28;20059;-80
2020/12/10 01:12:32;;;;;;;71.82;28.80;;;4.70;91.10;;;;;;5058828;28;20438;-78
2020/12/10 01:14:58;;;;;;;70.40;25.60;;;4.80;91.20;;;;;;5041856;28;20024;-79
2020/12/10 01:17:24;;;;;;;69.93;28.60;;;4.80;91.20;;;;;;5025577;28;20472;-79
2020/12/10 01:19:50;;;;;;;81.75;31.10;;;4.70;91.20;;;;;;5019328;28;20033;-79
2020/12/10 01:22:16;;;;;;;77.18;28.90;;;4.80;91.20;;;;;;5035786;28;20076;-79
2020/12/10 01:24:41;;;;;;;77.00;29.40;;;4.70;91.30;;;;;;5036584;28;20028;-78
2020/12/10 01:27:07;;;;;;;78.32;29.77;;;4.80;91.20;;;;;;5024680;28;20035;-80
2020/12/10 01:29:33;;;;;;;81.05;30.45;;;4.80;91.20;;;;;;5038079;28;20021;-79
2020/12/10 01:31:58;;;;;;;74.15;29.25;;;4.80;91.20;;;;;;5017075;28;20021;-77
2020/12/10 01:34:24;;;;;;;76.95;29.48;;;4.70;91.10;;;;;;5040670;28;20016;-77
2020/12/10 01:36:50;;;;;;;66.03;27.65;;;4.70;91.10;;;;;;5018441;28;20028;-77
2020/12/10 01:39:15;;;;;;;61.95;26.08;;;4.70;91.10;;;;;;5034856;28;20052;-80
2020/12/10 01:41:41;;;;;;;66.47;28.42;;;4.70;91.10;;;;;;5018662;28;20477;-78
2020/12/10 01:44:13;;;;;;;70.65;29.73;;;4.70;91.10;;;;;;5038400;28;20021;-78
2020/12/10 01:46:40;;;;;;;66.55;27.58;;;4.70;91.10;;;;;;5035778;28;20024;-79
2020/12/10 01:49:07;;;;;;;69.68;29.23;;;4.70;91.10;;;;;;5058733;28;20055;-78
2020/12/10 01:51:34;;;;;;;68.90;29.33;;;4.70;91.00;;;;;;5022887;28;20025;-78
2020/12/10 01:54:00;;;;;;;61.35;27.02;;;4.70;91.10;;;;;;5021157;28;20037;-79
2020/12/10 01:56:27;;;;;;;72.28;28.48;;;4.70;90.80;;;;;;5033187;28;20053;-77
2020/12/10 01:58:54;;;;;;;65.50;28.45;;;4.70;91.00;;;;;;5037441;28;20405;-77
2020/12/10 02:01:20;;;;;;;69.10;28.13;;;4.70;91.00;;;;;;5052648;28;20079;-79
2020/12/10 02:03:45;;;;;;;69.10;29.77;;;4.70;91.00;;;;;;5021021;28;20063;-80
2020/12/10 02:06:11;;;;;;;66.75;28.45;;;4.70;91.00;;;;;;5033749;28;20055;-80
2020/12/10 02:08:41;;;;;;;67.15;29.42;;;4.70;91.00;;;;;;5024315;28;20036;-79
2020/12/10 02:11:08;;;;;;;73.43;29.40;;;4.70;91.10;;;;;;5026591;28;20036;-79
2020/12/10 02:13:34;;;;;;;77.55;32.00;;;4.70;91.10;;;;;;5016103;28;20036;-79
2020/12/10 02:16:00;;;;;;;78.32;30.52;;;4.70;91.10;;;;;;5019592;28;20020;-79
2020/12/10 02:18:27;;;;;;;73.22;31.00;;;4.70;91.10;;;;;;5041614;28;20063;-79
2020/12/10 02:20:53;;;;;;;78.18;31.73;;;4.70;91.20;;;;;;5023429;28;20499;-78
2020/12/10 02:23:19;;;;;;;83.63;31.25;;;4.70;91.30;;;;;;5028090;28;20025;-78
2020/12/10 02:25:45;;;;;;;79.13;33.17;;;4.70;91.30;;;;;;5055360;28;20041;-76
2020/12/10 02:28:13;;;;;;;78.80;32.15;;;4.70;91.30;;;;;;5039944;28;20097;-77
2020/12/10 02:30:41;;;;;;;83.45;32.47;;;4.70;91.30;;;;;;5039440;28;20032;-78
2020/12/10 02:33:08;;;;;;;79.30;31.45;;;4.70;91.30;;;;;;5013683;28;20100;-79
2020/12/10 02:35:36;;;;;;;84.88;33.20;;;4.70;91.30;;;;;;5018486;28;20021;-79
2020/12/10 02:38:04;;;;;;;84.53;30.83;;;4.70;91.40;;;;;;5018610;28;20392;-79
2020/12/10 02:40:39;;;;;;;83.53;31.88;;;4.70;91.40;;;;;;5017600;28;20052;-79
2020/12/10 02:43:05;;;;;;;90.78;32.95;;;4.70;91.40;;;;;;5035213;28;20503;-77
2020/12/10 02:45:31;;;;;;;77.63;32.88;;;4.70;91.40;;;;;;5020477;28;20044;-79
2020/12/10 02:47:57;;;;;;;82.78;32.85;;;4.70;91.50;;;;;;5018416;28;20029;-80
2020/12/10 02:50:23;;;;;;;84.13;32.78;;;4.70;91.50;;;;;;5031171;28;20108;-79
2020/12/10 02:52:49;;;;;;;75.95;32.15;;;4.70;91.50;;;;;;5019263;28;20384;-78
2020/12/10 02:55:15;;;;;;;84.25;32.08;;;4.70;91.50;;;;;;5016367;28;20026;-78
2020/12/10 02:57:40;;;;;;;79.78;33.03;;;4.70;91.50;;;;;;5015493;28;20033;-78
2020/12/10 03:00:08;;;;;;;75.03;31.23;;;4.60;91.50;;;;;;5014268;28;20029;-78
2020/12/10 03:02:34;;;;;;;72.05;30.85;;;4.70;91.50;;;;;;5044016;28;20037;-78
2020/12/10 03:05:00;;;;;;;78.82;30.45;;;4.70;91.50;;;;;;5038152;28;20415;-77
2020/12/10 03:07:26;;;;;;;70.70;29.95;;;4.60;91.60;;;;;;5039910;28;20033;-79
2020/12/10 03:09:51;;;;;;;78.47;31.58;;;4.60;91.60;;;;;;5020896;28;20029;-78
2020/12/10 03:12:17;;;;;;;72.15;29.55;;;4.60;91.60;;;;;;5037172;28;20547;-78
2020/12/10 03:14:43;;;;;;;80.35;32.10;;;4.70;91.60;;;;;;5018030;28;20103;-78
2020/12/10 03:17:09;;;;;;;81.93;31.17;;;4.70;91.60;;;;;;5017275;28;20047;-79
2020/12/10 03:19:35;;;;;;;75.47;32.65;;;4.60;91.60;;;;;;5021596;28;20059;-79
2020/12/10 03:22:01;;;;;;;68.82;29.98;;;4.60;91.50;;;;;;5027050;28;20089;-78
2020/12/10 03:24:26;;;;;;;74.03;28.65;;;4.70;91.40;;;;;;5036324;28;20052;-80
2020/12/10 03:26:52;;;;;;;68.18;30.45;;;4.60;91.40;;;;;;5027709;28;20033;-77
2020/12/10 03:29:18;;;;;;;71.07;29.10;;;4.60;91.40;;;;;;5044712;28;20028;-78
2020/12/10 03:31:44;;;;;;;64.82;28.55;;;4.60;91.40;;;;;;5044816;28;20488;-77
2020/12/10 03:34:09;;;;;;;65.82;29.20;;;4.60;91.40;;;;;;5029079;28;20020;-79
2020/12/10 03:36:51;;;;;;;68.45;30.20;;;4.60;91.40;;;;;;5035121;28;20091;-79
2020/12/10 03:39:19;;;;;;;68.35;28.88;;;4.60;91.40;;;;;;5036280;28;20021;-79
2020/12/10 03:41:45;;;;;;;66.90;29.38;;;4.60;91.50;;;;;;5027393;28;20484;-79
2020/12/10 03:44:11;;;;;;;69.53;30.30;;;4.70;91.40;;;;;;5030254;28;20449;-79
2020/12/10 03:46:38;;;;;;;64.50;28.25;;;4.70;91.30;;;;;;5035538;28;20100;-79
2020/12/10 03:49:04;;;;;;;67.07;28.42;;;4.60;91.40;;;;;;5041553;28;20033;-79
2020/12/10 03:51:30;;;;;;;68.45;29.42;;;4.60;91.30;;;;;;5036229;28;20213;-77
2020/12/10 03:53:55;;;;;;;66.18;28.88;;;4.60;91.50;;;;;;5031917;28;20074;-79
2020/12/10 03:56:21;;;;;;;68.82;28.55;;;4.60;91.40;;;;;;5029394;28;20021;-78
2020/12/10 03:58:47;;;;;;;71.55;30.65;;;4.60;91.40;;;;;;5065507;28;20040;-79
2020/12/10 04:01:13;;;;;;;68.38;28.48;;;4.60;91.40;;;;;;5045259;28;20447;-78
2020/12/10 04:03:38;;;;;;;66.35;28.30;;;4.60;91.40;;;;;;5047316;28;20036;-80
2020/12/10 04:06:04;;;;;;;61.85;27.77;;;4.60;91.40;;;;;;5043897;28;20112;-80
2020/12/10 04:08:29;;;;;;;57.92;27.27;;;4.60;91.40;;;;;;5044906;28;20308;-80
2020/12/10 04:10:55;;;;;;;56.92;25.90;;;4.60;91.40;;;;;;5032289;28;20108;-79
2020/12/10 04:13:21;;;;;;;56.97;25.63;;;4.60;91.40;;;;;;5027996;28;20032;-80
2020/12/10 04:15:46;;;;;;;57.17;25.73;;;4.60;91.20;;;;;;5047071;28;20057;-77
2020/12/10 04:18:12;;;;;;;59.45;26.83;;;4.60;91.30;;;;;;5028720;28;20446;-78
2020/12/10 04:20:38;;;;;;;56.72;25.83;;;4.50;91.30;;;;;;5029901;28;20472;-78
2020/12/10 04:23:03;;;;;;;53.38;24.67;;;4.50;91.30;;;;;;5030152;28;20480;-77
2020/12/10 04:25:29;;;;;;;47.42;24.10;;;4.50;91.20;;;;;;5044774;28;20040;-77
2020/12/10 04:27:55;;;;;;;53.05;23.67;;;4.50;91.30;;;;;;5043816;28;20082;-78
2020/12/10 04:30:23;;;;;;;46.67;23.98;;;4.50;91.40;;;;;;5044284;28;20021;-77
2020/12/10 04:32:49;;;;;;;51.58;25.02;;;4.50;91.40;;;;;;5027019;28;20033;-76
2020/12/10 04:35:14;;;;;;;44.45;20.70;;;4.50;91.40;;;;;;5044363;28;20087;-76
2020/12/10 04:37:41;;;;;;;52.63;24.77;;;4.50;91.30;;;;;;5031641;28;20032;-77
2020/12/10 04:40:07;;;;;;;45.10;22.45;;;4.50;91.30;;;;;;5036037;28;20068;-77
2020/12/10 04:42:33;;;;;;;43.92;20.63;;;4.50;91.30;;;;;;5045659;28;20108;-77
2020/12/10 04:44:59;;;;;;;46.03;22.77;;;4.50;91.30;;;;;;5063343;28;20061;-78
2020/12/10 04:47:28;;;;;;;47.00;21.30;;;4.50;91.30;;;;;;5035466;28;20021;-78
2020/12/10 04:49:55;;;;;;;48.58;23.52;;;4.60;91.30;;;;;;5029849;28;20063;-78
2020/12/10 04:52:22;;;;;;;42.78;21.70;;;4.60;91.20;;;;;;5061500;28;20021;-77
2020/12/10 04:54:49;;;;;;;41.33;20.90;;;4.60;91.20;;;;;;5034956;28;20112;-77
2020/12/10 04:57:17;;;;;;;49.22;22.92;;;4.60;91.20;;;;;;5046216;28;20043;-77
2020/12/10 04:59:43;;;;;;;48.95;22.48;;;4.50;91.20;;;;;;5045416;28;20183;-77
2020/12/10 05:02:13;;;;;;;48.50;22.83;;;4.50;91.20;;;;;;5025321;28;20060;-76
2020/12/10 05:04:39;;;;;;;48.72;21.95;;;4.50;91.30;;;;;;5047404;28;20480;-77
2020/12/10 05:07:05;;;;;;;45.55;22.05;;;4.50;91.20;;;;;;5032240;28;20025;-79
2020/12/10 05:09:31;;;;;;;44.92;22.30;;;4.50;91.50;;;;;;5026346;28;20028;-78
2020/12/10 05:11:57;;;;;;;44.35;21.50;;;4.50;91.20;;;;;;5031653;28;20029;-78
2020/12/10 05:14:23;;;;;;;47.03;22.42;;;4.50;91.20;;;;;;5028460;28;20021;-78
2020/12/10 05:17:09;;;;;;;43.80;21.73;;;4.50;91.40;;;;;;5036711;28;20108;-78
2020/12/10 05:19:35;;;;;;;44.50;21.73;;;4.50;91.20;;;;;;5043045;28;20116;-78
2020/12/10 05:22:02;;;;;;;43.60;22.13;;;4.50;91.20;;;;;;5030454;28;20119;-77
2020/12/10 05:24:29;;;;;;;43.17;20.90;;;4.50;91.10;;;;;;5043759;28;20024;-78
2020/12/10 05:27:14;;;;;;;42.42;20.95;;;4.50;91.10;;;;;;5023624;28;20033;-78
2020/12/10 05:29:40;;;;;;;42.42;21.08;;;4.50;91.20;;;;;;5044243;28;20454;-77
2020/12/10 05:32:07;;;;;;;45.72;22.10;;;4.50;91.20;;;;;;5043522;28;20048;-78
2020/12/10 05:34:33;;;;;;;46.00;21.13;;;4.50;91.10;;;;;;5042646;28;20020;-78
2020/12/10 05:36:59;;;;;;;44.53;20.55;;;4.50;91.20;;;;;;5046825;28;20119;-78
2020/12/10 05:39:24;;;;;;;41.72;20.17;;;4.50;91.10;;;;;;5028717;28;20020;-78
2020/12/10 05:41:54;;;;;;;45.90;22.13;;;4.50;91.20;;;;;;5042803;28;20028;-78
2020/12/10 05:44:24;;;;;;;49.85;23.70;;;4.40;91.20;;;;;;5030208;28;20556;-75
2020/12/10 05:46:53;;;;;;;45.30;21.97;;;4.40;91.20;;;;;;5027135;28;20392;-76
2020/12/10 05:49:19;;;;;;;45.22;21.75;;;4.40;91.20;;;;;;5024181;28;20291;-78
2020/12/10 05:51:49;;;;;;;47.50;21.80;;;4.50;91.30;;;;;;5034473;28;20492;-78
2020/12/10 05:54:19;;;;;;;52.38;24.00;;;4.40;91.20;;;;;;5031215;28;20599;-79
2020/12/10 05:56:55;;;;;;;49.08;23.02;;;4.40;91.30;;;;;;5037155;28;20029;-78
2020/12/10 05:59:26;;;;;;;50.38;22.75;;;4.40;91.30;;;;;;5042294;28;20032;-77
2020/12/10 06:01:56;;;;;;;53.63;24.52;;;4.40;91.30;;;;;;5023827;28;20412;-77
2020/12/10 06:04:24;;;;;;;52.72;23.90;;;4.40;91.40;;;;;;5043223;28;20032;-76
2020/12/10 06:06:51;;;;;;;55.95;23.90;;;4.40;91.40;;;;;;5025611;28;20074;-76
2020/12/10 06:09:19;;;;;;;52.13;23.30;;;4.40;91.40;;;;;;5062603;28;20491;-77
2020/12/10 06:11:45;;;;;;;59.38;24.25;;;4.40;91.50;;;;;;5028510;28;20047;-77
2020/12/10 06:14:11;;;;;;;57.28;25.60;;;4.40;91.40;;;;;;5074301;28;20024;-77
2020/12/10 06:16:37;;;;;;;58.33;23.27;;;4.40;91.50;;;;;;5049641;28;20021;-78
2020/12/10 06:19:10;;;;;;;61.35;25.65;;;4.40;91.50;;;;;;5029602;28;20424;-78
2020/12/10 06:21:42;;;;;;;58.40;25.63;;;4.40;91.60;;;;;;5043838;28;20029;-77
2020/12/10 06:24:26;;;;;;;62.83;25.75;;;4.40;91.60;;;;;;5025844;28;20033;-79
2020/12/10 06:26:53;;;;;;;66.35;25.33;;;4.40;91.60;;;;;;5030160;28;20077;-78
2020/12/10 06:29:23;;;;;;;62.92;25.45;;;4.40;91.60;;;;;;5043880;28;20048;-77
2020/12/10 06:32:13;;;;;;;72.20;26.15;;;4.40;91.60;;;;;;5015041;28;20036;-79
2020/12/10 06:34:55;;;;;;;76.17;28.40;;;4.40;91.60;;;;;;5046829;28;20487;-79
2020/12/10 06:37:29;;;;;;;70.63;28.35;;;4.40;91.50;;;;;;5022554;28;20033;-77
2020/12/10 06:40:00;;;;;;;72.00;29.02;;;4.40;91.60;;;;;;5044470;28;20035;-78
2020/12/10 06:42:42;;;;;;;;;;;4.40;91.70;;;;;;5063249;28;20041;-80
2020/12/10 06:45:31;;;;;;;73.93;25.45;;;4.40;91.50;;;;;;5019118;28;19909;-75
2020/12/10 06:47:57;;;;;;;75.07;26.17;;;4.30;91.70;;;;;;5055729;28;20067;-78
2020/12/10 06:50:24;;;;;;;56.05;24.17;;;4.30;91.70;;;;;;5026808;28;20063;-77
2020/12/10 06:53:09;;;;;;;61.38;24.83;;;4.30;91.70;;;;;;5025025;28;20081;-77
2020/12/10 06:55:55;;;;;;;54.05;22.35;;;4.30;91.60;;;;;;5019711;28;20017;-79
2020/12/10 06:58:22;;;;;;;55.22;21.83;;;4.30;91.60;;;;;;5022646;28;20086;-77
2020/12/10 07:00:54;;;;;;;55.13;21.85;;;4.30;91.50;;;;;;5027996;28;20120;-77
2020/12/10 07:03:27;;;;;;;49.20;21.45;;;4.30;91.40;;;;;;5027633;28;20033;-78
2020/12/10 07:05:52;;;;;;;55.75;21.52;;;4.30;91.50;;;;;;5024815;28;20032;-77
2020/12/10 07:08:19;;;;;;;51.80;20.35;;;4.30;91.40;;;;;;5027277;28;20021;-77
2020/12/10 07:10:49;;;;;;;52.00;21.35;;;4.30;91.40;;;;;;5040495;28;20499;-77
2020/12/10 07:13:30;;;;;;;48.90;20.50;;;4.30;91.30;;;;;;5022269;28;20025;-75
2020/12/10 07:15:56;;;;;;;53.65;20.63;;;4.30;91.30;;;;;;5040312;28;20496;-77
2020/12/10 07:18:22;;;;;;;52.47;21.98;;;4.30;91.40;;;;;;5037165;28;20078;-77
2020/12/10 07:20:47;;;;;;;50.00;20.50;;;4.20;91.50;;;;;;5040268;28;20488;-77
2020/12/10 07:23:13;;;;;;;49.65;20.58;;;4.20;91.60;;;;;;5019914;28;20071;-76
2020/12/10 07:25:39;;;;;;;49.58;20.25;;;4.30;91.60;;;;;;5041428;28;20033;-77
2020/12/10 07:28:05;;;;;;;55.25;21.73;;;4.30;91.70;;;;;;5022207;28;20029;-76
2020/12/10 07:30:31;;;;;;;53.58;23.17;;;4.30;91.70;;;;;;5009632;28;20025;-75
2020/12/10 07:32:58;;;;;;;56.53;22.85;;;4.30;91.60;;;;;;5048726;28;20100;-74
2020/12/10 07:35:28;;;;;;;56.42;21.55;;;4.30;91.60;;;;;;5013399;28;20056;-74
2020/12/10 07:37:54;;;;;;;54.60;20.90;;;4.30;91.50;;;;;;5028514;28;20044;-75
2020/12/10 07:40:20;;;;;;;56.70;23.70;;;4.30;91.50;;;;;;5049652;28;20028;-76
2020/12/10 07:42:46;;;;;;;55.45;21.98;;;4.30;91.50;;;;;;5049337;28;20041;-74
2020/12/10 07:45:19;;;;;;;49.35;21.55;;;4.30;91.40;;;;;;5035470;28;20029;-77
2020/12/10 07:48:00;;;;;;;50.47;21.85;;;4.30;91.40;;;;;;5015837;28;20459;-74
2020/12/10 07:50:26;;;;;;;46.63;21.65;;;4.30;91.50;;;;;;5052734;28;20024;-75
2020/12/10 07:52:53;;;;;;;50.38;23.73;;;4.30;91.00;;;;;;5018524;28;20033;-75
2020/12/10 07:55:24;;;;;;;54.83;23.50;;;4.30;91.00;;;;;;5012898;28;20021;-76
2020/12/10 07:58:10;;;;;;;60.70;25.10;;;4.30;90.90;;;;;;5034021;28;20167;-77
2020/12/10 08:00:37;;;;;;;55.03;25.23;;;4.30;90.90;;;;;;5053509;28;20032;-75
2020/12/10 08:03:51;;;;;;;59.70;25.38;;;4.20;91.00;;;;;;5029743;28;20033;-75
2020/12/10 08:06:17;;;;;;;64.72;28.67;;;4.20;90.90;;;;;;4955357;28;20045;-77
2020/12/10 08:08:47;;;;;;;67.65;26.73;;;4.20;90.90;;;;;;5030485;28;20041;-75
2020/12/10 08:11:18;;;;;;;70.20;28.50;;;4.20;91.00;;;;;;5044170;28;20041;-78
2020/12/10 08:14:10;;;;;;;66.47;27.52;;;4.20;91.10;;;;;;5040958;28;20726;-77
2020/12/10 08:16:41;;;;;;;74.78;27.45;;;4.10;91.20;;;;;;5052518;28;20078;-76
2020/12/10 08:19:21;;;;;;;64.78;26.05;;;4.10;91.50;;;;;;5031714;28;20082;-76
2020/12/10 08:21:49;;;;;;;63.10;24.65;;;4.10;91.30;;;;;;5033653;28;20032;-76
2020/12/10 08:24:34;;;;;;;59.58;26.80;;;4.10;91.30;;;;;;5024996;28;20051;-76
2020/12/10 08:27:00;;;;;;;67.05;26.98;;;4.10;91.30;;;;;;5020699;28;20032;-77
2020/12/10 08:29:25;;;;;;;65.07;27.15;;;4.10;91.30;;;;;;5013920;28;20025;-75
2020/12/10 08:32:03;;;;;;;62.47;25.20;;;4.10;91.50;;;;;;5033466;28;20108;-77
2020/12/10 08:34:29;;;;;;;67.78;26.83;;;4.10;91.50;;;;;;5028300;28;20083;-79
2020/12/10 08:37:02;;;;;;;69.95;28.95;;;4.10;91.50;;;;;;5027251;28;20393;-79
2020/12/10 08:39:32;;;;;;;72.97;28.15;;;4.10;91.40;;;;;;5047217;28;20054;-79
2020/12/10 08:41:57;;;;;;;76.40;30.98;;;4.10;91.40;;;;;;5042875;28;20435;-80
2020/12/10 08:44:23;;;;;;;76.40;29.90;;;4.10;91.50;;;;;;5046943;28;20032;-80
2020/12/10 08:46:59;;;;;;;75.60;29.10;;;4.10;91.30;;;;;;5034499;28;20028;-80
2020/12/10 08:49:25;;;;;;;71.57;28.70;;;4.00;91.40;;;;;;5052168;28;20539;-80
2020/12/10 08:51:51;;;;;;;77.28;30.08;;;4.00;91.50;;;;;;5028023;28;20029;-80
2020/12/10 08:54:17;;;;;;;84.97;31.65;;;4.10;91.50;;;;;;5044454;28;20028;-79
2020/12/10 08:56:43;;;;;;;81.22;31.38;;;4.10;91.50;;;;;;5070005;28;20064;-78
2020/12/10 08:59:09;;;;;;;81.80;31.83;;;4.10;91.60;;;;;;5047102;28;20099;-80
2020/12/10 09:01:35;;;;;;;84.78;31.75;;;4.10;91.50;;;;;;5026727;28;20032;-78
2020/12/10 09:04:02;;;;;;;91.78;35.92;;;4.10;91.50;;;;;;5022979;28;20033;-78
2020/12/10 09:06:35;;;;;;;86.50;34.47;;;4.10;91.60;;;;;;5044804;28;20036;-78
2020/12/10 09:09:03;;;;;;;88.22;32.30;;;4.10;91.70;;;;;;5040452;28;20120;-78
2020/12/10 09:11:29;;;;;;;95.82;34.97;;;4.10;91.60;;;;;;5025044;28;20025;-78
2020/12/10 09:13:59;;;;;;;88.40;32.90;;;4.10;91.60;;;;;;5047333;28;20392;-79
2020/12/10 09:16:29;;;;;;;88.13;34.22;;;4.20;91.90;;;;;;5022964;28;20538;-77
2020/12/10 09:18:55;;;;;;;78.60;31.08;;;4.10;91.60;;;;;;5021693;28;20124;-76
2020/12/10 09:21:21;;;;;;;77.40;29.90;;;4.10;91.60;;;;;;5024388;28;20029;-76
2020/12/10 09:23:47;;;;;;;79.53;32.33;;;4.10;91.40;;;;;;5063431;28;20039;-76
2020/12/10 09:26:14;;;;;;;80.40;31.15;;;4.10;91.40;;;;;;5045044;28;20024;-77
2020/12/10 09:28:40;;;;;;;83.15;31.10;;;4.10;91.40;;;;;;5039460;28;20036;-77
2020/12/10 09:31:06;;;;;;;78.70;32.22;;;4.10;91.40;;;;;;5056551;28;20104;-77
2020/12/10 09:33:32;;;;;;;65.35;27.90;;;4.10;91.50;;;;;;5041171;28;20024;-77
2020/12/10 09:35:58;;;;;;;60.13;26.35;;;4.10;91.50;;;;;;5023409;28;20029;-77
2020/12/10 09:38:24;;;;;;;54.35;26.55;;;4.00;91.20;;;;;;5037826;28;20120;-78
2020/12/10 09:40:50;;;;;;;58.58;25.42;;;4.10;91.20;;;;;;5038863;28;20047;-77
2020/12/10 09:43:16;;;;;;;60.58;26.05;;;4.10;91.10;;;;;;5041688;28;20104;-78
2020/12/10 09:45:46;;;;;;;58.65;26.95;;;4.10;91.10;;;;;;5028563;28;20032;-77
2020/12/10 09:48:12;;;;;;;69.60;27.63;;;4.10;91.20;;;;;;5009326;28;20036;-78
2020/12/10 09:50:38;;;;;;;65.78;28.33;;;4.10;91.30;;;;;;5041240;28;20029;-78
2020/12/10 09:53:10;;;;;;;61.08;27.35;;;4.10;91.20;;;;;;5024828;28;20029;-78
2020/12/10 09:58:07;;;;;;;62.22;28.17;;;4.10;91.20;;;;;;5042317;28;20028;-77
2020/12/10 10:00:35;;;;;;;66.75;27.58;;;4.10;91.20;;;;;;5030863;28;20139;-78
2020/12/10 10:03:06;;;;;;;62.58;26.00;;;4.10;91.10;;;;;;5022701;28;20404;-78
2020/12/10 10:05:33;;;;;;;65.22;28.02;;;4.10;91.20;;;;;;5051974;28;20025;-77
2020/12/10 10:08:00;;;;;;;64.93;29.50;;;4.10;91.10;;;;;;5025559;28;20040;-78
2020/12/10 10:10:26;;;;;;;60.92;26.58;;;4.10;91.00;;;;;;5039919;28;20029;-78
2020/12/10 10:12:52;;;;;;;63.70;26.38;;;4.10;91.10;;;;;;5026646;28;20897;-78
2020/12/10 10:15:18;;;;;;;69.00;30.35;;;4.10;91.10;;;;;;5058253;28;20021;-78
2020/12/10 10:17:43;;;;;;;72.50;29.55;;;4.10;91.10;;;;;;5025629;28;20028;-78
2020/12/10 10:20:09;;;;;;;69.95;28.77;;;4.10;91.00;;;;;;5025798;28;20032;-78
2020/12/10 10:22:38;;;;;;;68.13;29.98;;;4.10;91.10;;;;;;5020618;28;20389;-78
2020/12/10 10:25:05;;;;;;;66.13;28.33;;;4.10;91.00;;;;;;5038772;28;20111;-78
2020/12/10 10:27:31;;;;;;;66.20;28.95;;;4.10;91.10;;;;;;5037527;28;20492;-77
2020/12/10 10:29:57;;;;;;;70.57;30.15;;;4.10;91.00;;;;;;5040182;28;20054;-77
2020/12/10 10:32:22;;;;;;;72.60;30.80;;;4.10;90.90;;;;;;5023541;28;20041;-78
2020/12/10 10:34:48;;;;;;;72.32;29.90;;;4.10;91.00;;;;;;5025494;28;20063;-78
2020/12/10 10:37:14;;;;;;;72.57;29.75;;;4.20;91.00;;;;;;5032248;28;20029;-78
2020/12/10 10:39:39;;;;;;;67.90;28.02;;;4.10;91.00;;;;;;5029654;28;20028;-78
2020/12/10 10:42:05;;;;;;;67.93;29.60;;;4.10;91.00;;;;;;5037932;28;20083;-78
2020/12/10 10:44:31;;;;;;;80.03;31.50;;;4.20;91.00;;;;;;5022647;28;20024;-78
2020/12/10 10:46:57;;;;;;;74.53;30.33;;;4.20;90.90;;;;;;5018758;28;20017;-77
2020/12/10 10:49:23;;;;;;;76.82;30.80;;;4.20;90.90;;;;;;5043551;28;20045;-78
2020/12/10 10:51:49;;;;;;;74.35;31.13;;;4.20;90.90;;;;;;5021334;28;20024;-77
2020/12/10 10:54:16;;;;;;;78.28;32.97;;;4.20;90.80;;;;;;5039150;28;20025;-77
2020/12/10 10:56:41;;;;;;;82.60;31.38;;;4.20;90.80;;;;;;5024178;28;20960;-77
2020/12/10 10:59:07;;;;;;;82.47;33.25;;;4.20;90.80;;;;;;5029096;28;20025;-77
2020/12/10 11:01:33;;;;;;;87.70;33.42;;;4.20;91.00;;;;;;5020285;28;20619;-78
2020/12/10 11:03:59;;;;;;;74.28;31.63;;;4.20;90.80;;;;;;5020404;28;20116;-77
2020/12/10 11:06:26;;;;;;;76.13;31.80;;;4.20;90.90;;;;;;5023693;28;20105;-78
2020/12/10 11:08:51;;;;;;;73.13;30.92;;;4.20;90.80;;;;;;5034065;28;20512;-78
2020/12/10 11:11:20;;;;;;;80.28;30.63;;;4.20;90.80;;;;;;5021955;28;20029;-78
2020/12/10 11:13:46;;;;;;;79.60;30.77;;;4.20;90.70;;;;;;5052333;28;20516;-78
2020/12/10 11:16:12;;;;;;;76.05;30.45;;;4.20;90.60;;;;;;5022680;28;20027;-78
2020/12/10 11:18:42;;;;;;;72.65;31.40;;;4.20;90.60;;;;;;5022359;28;20032;-78
2020/12/10 11:21:08;;;;;;;76.80;31.07;;;4.20;90.50;;;;;;5040195;28;20029;-79
2020/12/10 11:23:34;;;;;;;77.63;30.02;;;4.20;90.60;;;;;;5030105;28;20047;-79
2020/12/10 11:26:00;;;;;;;74.68;30.05;;;4.20;90.60;;;;;;5021670;28;20025;-75
2020/12/10 11:28:27;;;;;;;75.28;30.88;;;4.20;90.60;;;;;;5049202;28;20060;-75
2020/12/10 11:30:52;;;;;;;75.82;31.60;;;4.20;90.60;;;;;;5037868;28;20025;-73
2020/12/10 11:33:18;;;;;;;76.47;31.05;;;4.20;90.50;;;;;;5038069;28;20029;-74
2020/12/10 11:35:44;;;;;;;86.60;35.03;;;4.20;90.50;;;;;;5022525;28;20031;-74
2020/12/10 11:38:09;;;;;;;87.85;33.78;;;4.20;90.70;;;;;;5032295;28;20501;-74
2020/12/10 11:40:35;;;;;;;88.15;33.28;;;4.20;90.70;;;;;;5022636;28;20119;-74
2020/12/10 11:43:02;;;;;;;86.45;33.30;;;4.20;90.70;;;;;;5028625;28;20043;-74
2020/12/10 11:45:28;;;;;;;85.88;33.55;;;4.20;90.80;;;;;;5037854;28;20027;-74
2020/12/10 11:47:54;;;;;;;92.47;34.92;;;4.20;90.80;;;;;;5041264;28;20028;-74
2020/12/10 11:50:20;;;;;;;96.38;34.35;;;4.20;90.80;;;;;;5038699;28;20481;-75
2020/12/10 11:52:48;;;;;;;84.03;33.25;;;4.20;90.80;;;;;;5053092;28;20017;-76
2020/12/10 11:55:15;;;;;;;91.47;34.33;;;4.20;90.80;;;;;;5041528;28;20116;-76
2020/12/10 11:57:41;;;;;;;90.70;32.30;;;4.20;90.80;;;;;;5038172;28;20095;-75
2020/12/10 12:00:09;;;;;;;73.95;32.22;;;4.20;90.80;;;;;;5017199;28;20036;-74
2020/12/10 12:02:35;;;;;;;82.40;32.05;;;4.20;90.70;;;;;;5036148;28;20496;-74
2020/12/10 12:05:02;;;;;;;86.40;33.85;;;4.20;90.70;;;;;;5035553;28;20029;-74
2020/12/10 12:07:28;;;;;;;75.07;30.33;;;4.20;90.50;;;;;;5019954;28;20025;-73
2020/12/10 12:09:54;;;;;;;73.30;28.85;;;4.20;90.50;;;;;;5034918;28;20079;-74
2020/12/10 12:12:19;;;;;;;81.38;30.90;;;4.30;90.50;;;;;;5037527;28;20473;-75
2020/12/10 12:14:45;;;;;;;81.80;32.17;;;4.20;90.50;;;;;;5023267;28;20116;-74
2020/12/10 12:17:11;;;;;;;76.47;30.25;;;4.20;90.50;;;;;;5032769;28;20476;-74
2020/12/10 12:19:36;;;;;;;75.03;30.02;;;4.20;90.50;;;;;;5054732;28;20454;-75
2020/12/10 12:22:03;;;;;;;75.00;29.05;;;4.20;90.30;;;;;;5031148;28;20024;-74
2020/12/10 12:24:29;;;;;;;70.15;28.77;;;4.20;90.40;;;;;;5031793;28;20044;-75
2020/12/10 12:26:55;;;;;;;95.20;35.03;;;4.20;90.50;;;;;;5037633;28;20025;-74
2020/12/10 12:29:21;;;;;;;91.00;34.00;;;4.20;90.50;;;;;;5037649;28;20028;-73
2020/12/10 12:31:47;;;;;;;88.72;33.70;;;4.20;90.50;;;;;;5034654;28;20152;-74
2020/12/10 12:34:13;;;;;;;98.68;34.38;;;4.20;90.50;;;;;;5038662;28;20507;-74
2020/12/10 12:36:39;;;;;;;84.95;32.35;;;4.20;90.50;;;;;;5053869;28;20021;-74
2020/12/10 12:39:05;;;;;;;93.70;33.90;;;4.20;90.50;;;;;;5056781;28;20116;-74
2020/12/10 12:41:32;;;;;;;89.65;34.17;;;4.30;91.30;;;;;;5057640;28;20028;-75
2020/12/10 12:43:59;;;;;;;81.18;32.00;;;4.30;90.70;;;;;;5022998;28;20073;-73